menu
account_circle
تسجيل الدخول
keyboard_backspace اختر الدولة

آخر تغير في أسعار تويوتا الجديدة

طراز السعر القديم الإختلاف السعر الجديد date_range
تويوتا برادو اتوماتيك / Full Option 2022 2,690,000 جنيه trending_up +50,000 جنيه 2,740,000 جنيه 2022-09-20
تويوتا كامري اتوماتيك / هاى لاين 2022 2,515,000 جنيه trending_up +85,000 جنيه 2,600,000 جنيه 2022-09-20
تويوتا راف فور اتوماتيك / جميع الكماليات 2022 2,150,000 جنيه trending_up +50,000 جنيه 2,200,000 جنيه 2022-09-20
تويوتا كورولا اتوماتيك / هاى لاين / هايبرد 2022 690,000 جنيه trending_up +135,000 جنيه 825,000 جنيه 2022-09-20
تويوتا ياريس اتوماتيك / Smart 2022 445,000 جنيه trending_up +50,000 جنيه 495,000 جنيه 2022-09-16
تويوتا ياريس اتوماتيك / Comfort 2022 445,000 جنيه trending_up +30,000 جنيه 475,000 جنيه 2022-09-16
تويوتا روميون اتوماتيك / GLX 2022 380,000 جنيه trending_up +40,000 جنيه 420,000 جنيه 2022-09-16
تويوتا روميون اتوماتيك / GL 2022 350,000 جنيه trending_up +40,000 جنيه 390,000 جنيه 2022-09-16
تويوتا بيلتا اتوماتيك / Smart 2022 365,000 جنيه trending_up +40,000 جنيه 405,000 جنيه 2022-09-16
تويوتا بيلتا اتوماتيك / Active 2022 320,000 جنيه trending_up +40,000 جنيه 360,000 جنيه 2022-09-16
تويوتا رش اتوماتيك / Highline 2022 430,000 جنيه trending_up +40,000 جنيه 470,000 جنيه 2022-09-16
تويوتا رش اتوماتيك / F/O 2022 410,000 جنيه trending_up +30,000 جنيه 440,000 جنيه 2022-09-16
تويوتا C-HR اتوماتيك 2022 525,000 جنيه trending_up +75,000 جنيه 600,000 جنيه 2022-09-16
تويوتا فورتشنر اتوماتيك / Sport 2023 1,190,000 جنيه trending_up +200,000 جنيه 1,390,000 جنيه 2022-09-16
تويوتا فورتشنر اتوماتيك / ELEGANCE 2023 1,140,000 جنيه trending_up +150,000 جنيه 1,290,000 جنيه 2022-09-16
تويوتا فورتشنر اتوماتيك / SMART 2023 990,000 جنيه trending_up +150,000 جنيه 1,140,000 جنيه 2022-09-16
تويوتا كورولا اتوماتيك / GR 2022 525,000 جنيه trending_up +75,000 جنيه 600,000 جنيه 2022-09-16
تويوتا كورولا اتوماتيك / Elgance 2022 534,000 جنيه trending_up +100,000 جنيه 634,000 جنيه 2022-09-16
تويوتا كورولا سمارت / اتوماتيك / فتحة سقف 2022 500,000 جنيه trending_up +70,000 جنيه 570,000 جنيه 2022-09-16
تويوتا كورولا اتوماتيك / سمارت 2022 480,000 جنيه trending_up +70,000 جنيه 550,000 جنيه 2022-09-16
تويوتا كورولا اتوماتيك / Comfort 2022 460,000 جنيه trending_up +60,000 جنيه 520,000 جنيه 2022-09-16
تويوتا كورولا اتوماتيك / Active 2022 390,000 جنيه trending_up +85,000 جنيه 475,000 جنيه 2022-09-16
تويوتا كورولا مانيوال / Active 2022 425,000 جنيه trending_up +15,000 جنيه 440,000 جنيه 2022-09-16
تويوتا كورولا اتوماتيك / Elgance 2022 499,000 جنيه trending_up +35,000 جنيه 534,000 جنيه 2022-07-18
تويوتا كورولا اتوماتيك / GR 2022 490,000 جنيه trending_up +35,000 جنيه 525,000 جنيه 2022-07-18
تويوتا كورولا سمارت / اتوماتيك / فتحة سقف 2022 465,000 جنيه trending_up +35,000 جنيه 500,000 جنيه 2022-07-18
تويوتا كورولا اتوماتيك / سمارت 2022 445,000 جنيه trending_up +35,000 جنيه 480,000 جنيه 2022-07-18
تويوتا كورولا اتوماتيك / Comfort 2022 425,000 جنيه trending_up +35,000 جنيه 460,000 جنيه 2022-07-18
تويوتا كورولا مانيوال / Active 2022 352,000 جنيه trending_up +73,000 جنيه 425,000 جنيه 2022-07-18
تويوتا C-HR اتوماتيك 2022 475,000 جنيه trending_up +50,000 جنيه 525,000 جنيه 2022-07-18
تويوتا رش اتوماتيك / Highline 2022 390,000 جنيه trending_up +40,000 جنيه 430,000 جنيه 2022-07-18
تويوتا رش اتوماتيك / F/O 2022 370,000 جنيه trending_up +40,000 جنيه 410,000 جنيه 2022-07-18
تويوتا فورتشنر اتوماتيك / ELEGANCE 2023 1,100,000 جنيه trending_up +40,000 جنيه 1,140,000 جنيه 2022-07-18
تويوتا فورتشنر اتوماتيك / Sport 2023 1,140,000 جنيه trending_up +50,000 جنيه 1,190,000 جنيه 2022-07-18
تويوتا فورتشنر اتوماتيك / SMART 2023 950,000 جنيه trending_up +40,000 جنيه 990,000 جنيه 2022-07-18
تويوتا ياريس اتوماتيك / Smart 2022 410,000 جنيه trending_up +35,000 جنيه 445,000 جنيه 2022-07-18
تويوتا ياريس اتوماتيك / Comfort 2022 395,000 جنيه trending_up +50,000 جنيه 445,000 جنيه 2022-07-18
تويوتا كامري اتوماتيك / هاى لاين 2022 2,155,000 جنيه trending_up +360,000 جنيه 2,515,000 جنيه 2022-07-18
تويوتا راف فور اتوماتيك / جميع الكماليات 2022 1,855,000 جنيه trending_up +295,000 جنيه 2,150,000 جنيه 2022-07-18
تويوتا برادو اتوماتيك / Full Option 2022 2,390,000 جنيه trending_up +300,000 جنيه 2,690,000 جنيه 2022-07-18
تويوتا روميون اتوماتيك / GLX 2022 340,000 جنيه trending_up +40,000 جنيه 380,000 جنيه 2022-07-18
تويوتا روميون اتوماتيك / GL 2022 310,000 جنيه trending_up +40,000 جنيه 350,000 جنيه 2022-07-18
تويوتا بيلتا اتوماتيك / Smart 2022 320,000 جنيه trending_up +45,000 جنيه 365,000 جنيه 2022-07-18
تويوتا بيلتا اتوماتيك / Active 2022 285,000 جنيه trending_up +35,000 جنيه 320,000 جنيه 2022-07-18
تويوتا فورتشنر اتوماتيك / Sport 2023 1,070,000 جنيه trending_up +70,000 جنيه 1,140,000 جنيه 2022-06-19
تويوتا فورتشنر اتوماتيك / ELEGANCE 2023 1,040,000 جنيه trending_up +60,000 جنيه 1,100,000 جنيه 2022-06-19
تويوتا فورتشنر اتوماتيك / SMART 2023 890,000 جنيه trending_up +60,000 جنيه 950,000 جنيه 2022-06-19
تويوتا كورولا اتوماتيك / هاى لاين / هايبرد 2022 647,000 جنيه trending_up +43,000 جنيه 690,000 جنيه 2022-04-07
تويوتا كورولا اتوماتيك / Elgance 2022 472,000 جنيه trending_up +27,000 جنيه 499,000 جنيه 2022-04-07
تويوتا كورولا اتوماتيك / GR 2022 457,000 جنيه trending_up +33,000 جنيه 490,000 جنيه 2022-04-07
سيارات في المقارنة
keyboard_arrow_left
أضف سيارة أخري
keyboard_arrow_right
هتلاقي أسرع على تطبيق الهاتف
search
شراء
add_circle_outline
بيع
local_offer
الأسعار
notifications_active
تنبيهات
والكثير ..
نزل التطبيق الأن
هتلاقي أسرع على تطبيق الهاتف
search
شراء
add_circle_outline
بيع
local_offer
الأسعار
notifications_active
تنبيهات
والكثير ..
نزل التطبيق الأن